Time;durP1;ratioP1;P1;durP2;ratioP2;P2;SDS_P1;SDS_P2;PMS_P1;PMS_P2;Temp;Humidity;BMP_temperature;BMP_pressure;BME280_temperature;BME280_humidity;BME280_pressure;Samples;Min_cycle;Max_cycle;Signal;HPM_P1;HPM_P2
2023/08/28 00:01:48;;;;;;;1.92;1.70;;;17.80;64.30;19.50;100963.00;;;;5049052;28;20642;-83
2023/08/28 00:04:14;;;;;;;2.13;1.50;;;17.80;64.20;19.50;100962.00;;;;5048107;28;20202;-82
2023/08/28 00:06:42;;;;;;;1.85;1.58;;;17.70;64.10;19.50;100965.00;;;;5048360;28;20200;-82
2023/08/28 00:09:08;;;;;;;1.63;1.38;;;17.70;64.10;19.40;100963.00;;;;5048017;28;20196;-82
2023/08/28 00:11:35;;;;;;;2.33;1.92;;;17.70;64.20;19.40;100964.00;;;;5046895;28;20223;-82
2023/08/28 00:14:04;;;;;;;1.65;1.45;;;17.70;64.20;19.40;100967.00;;;;5047578;28;20202;-82
2023/08/28 00:16:31;;;;;;;1.38;1.25;;;17.60;64.20;19.40;100969.00;;;;5042165;28;20711;-82
2023/08/28 00:18:58;;;;;;;1.55;1.17;;;17.60;64.20;19.30;100983.00;;;;5041110;28;20698;-83
2023/08/28 00:21:25;;;;;;;1.88;1.38;;;17.60;64.20;19.30;100977.00;;;;5045433;28;20212;-82
2023/08/28 00:23:52;;;;;;;1.50;1.40;;;17.50;64.00;19.30;100985.00;;;;5044866;28;20187;-82
2023/08/28 00:26:19;;;;;;;1.73;1.63;;;17.50;64.00;19.30;100974.00;;;;5047148;28;20207;-83
2023/08/28 00:28:46;;;;;;;2.15;1.42;;;17.50;64.00;19.30;100977.00;;;;5047972;28;20223;-82
2023/08/28 00:31:14;;;;;;;3.35;1.73;;;17.50;64.10;19.20;100985.00;;;;5031759;28;20238;-83
2023/08/28 00:33:41;;;;;;;2.58;1.85;;;17.40;64.80;19.20;100992.00;;;;5039773;28;20204;-82
2023/08/28 00:36:08;;;;;;;1.63;1.40;;;17.40;64.10;19.20;100996.00;;;;5040690;28;20578;-83
2023/08/28 00:38:35;;;;;;;2.30;1.77;;;17.40;64.20;19.20;100994.00;;;;5047423;28;20208;-83
2023/08/28 00:41:04;;;;;;;1.50;1.17;;;17.40;64.30;19.10;100991.00;;;;5047005;28;20195;-84
2023/08/28 00:43:31;;;;;;;1.50;1.35;;;17.30;64.30;19.10;100992.00;;;;5044768;28;20250;-82
2023/08/28 00:45:58;;;;;;;1.42;1.30;;;17.30;64.30;19.10;100991.00;;;;5048350;28;20719;-83
2023/08/28 00:48:29;;;;;;;1.20;1.10;;;17.30;64.40;19.00;100985.00;;;;5047946;28;20211;-83
2023/08/28 00:50:56;;;;;;;1.55;1.30;;;17.30;64.40;19.00;100984.00;;;;5038971;28;20228;-82
2023/08/28 00:53:24;;;;;;;3.88;1.35;;;17.20;64.40;19.00;100980.00;;;;5043189;28;20199;-82
2023/08/28 00:55:51;;;;;;;1.40;1.30;;;17.20;64.40;19.00;100977.00;;;;5047397;28;20203;-82
2023/08/28 00:58:19;;;;;;;3.30;1.48;;;17.20;64.40;19.00;100991.00;;;;5046380;28;20218;-83
2023/08/28 01:00:46;;;;;;;1.48;1.27;;;17.20;64.40;19.00;100996.00;;;;5047786;28;20200;-82
2023/08/28 01:03:13;;;;;;;2.10;1.40;;;17.20;64.40;18.90;100983.00;;;;5047273;28;20199;-83
2023/08/28 01:06:01;;;;;;;1.60;1.45;;;17.10;65.00;18.80;100990.00;;;;5047661;28;20191;-83
2023/08/28 01:08:44;;;;;;;2.00;1.52;;;17.10;64.50;18.80;100985.00;;;;5042310;28;20196;-83
2023/08/28 01:11:19;;;;;;;1.95;1.70;;;17.10;64.50;18.80;100985.00;;;;5047259;28;20245;-83
2023/08/28 01:13:57;;;;;;;1.60;1.40;;;17.10;64.50;18.80;100986.00;;;;5046777;28;20202;-83
2023/08/28 01:16:29;;;;;;;1.40;1.30;;;17.10;64.50;18.80;100979.00;;;;5046455;28;20223;-82
2023/08/28 01:18:58;;;;;;;2.22;1.40;;;17.00;64.60;18.80;100982.00;;;;5047099;28;20202;-83
2023/08/28 01:21:27;;;;;;;1.60;1.35;;;17.00;64.60;18.80;100975.00;;;;5046209;28;20226;-83
2023/08/28 01:24:00;;;;;;;1.35;1.25;;;17.00;64.60;18.80;100966.00;;;;5037405;28;20210;-83
2023/08/28 01:26:30;;;;;;;3.72;1.33;;;17.00;64.60;18.80;100971.00;;;;5040069;28;20570;-83
2023/08/28 01:28:57;;;;;;;1.50;1.40;;;17.00;64.70;18.80;100974.00;;;;5048103;28;20198;-83
2023/08/28 01:31:24;;;;;;;1.83;1.52;;;16.90;64.70;18.80;100969.00;;;;5047376;28;20227;-82
2023/08/28 01:33:52;;;;;;;1.95;1.58;;;17.00;64.70;18.80;100972.00;;;;5047651;28;20204;-82
2023/08/28 01:36:32;;;;;;;3.10;1.25;;;17.00;64.80;18.70;100971.00;;;;5047521;28;20191;-83
2023/08/28 01:39:11;;;;;;;2.17;1.50;;;17.00;64.90;18.70;100963.00;;;;5047388;28;20199;-83
2023/08/28 01:41:42;;;;;;;2.38;1.48;;;16.90;64.80;18.70;100970.00;;;;5050161;28;20199;-83
2023/08/28 01:44:10;;;;;;;3.47;1.42;;;17.00;64.70;18.70;100969.00;;;;5050908;28;20218;-82
2023/08/28 01:46:38;;;;;;;4.65;1.45;;;16.90;64.60;18.70;100965.00;;;;5051580;28;20191;-82
2023/08/28 01:49:05;;;;;;;1.50;1.40;;;16.90;64.70;18.70;100965.00;;;;5050636;28;20200;-83
2023/08/28 01:51:32;;;;;;;1.67;1.30;;;16.90;64.70;18.70;100950.00;;;;5047375;28;20231;-82
2023/08/28 01:53:59;;;;;;;2.58;1.42;;;16.90;64.70;18.70;100956.00;;;;5048959;28;20278;-82
2023/08/28 01:56:26;;;;;;;4.85;1.60;;;16.90;64.70;18.70;100961.00;;;;5050868;28;20199;-83
2023/08/28 01:58:57;;;;;;;2.10;1.42;;;16.90;64.60;18.60;100957.00;;;;5049902;28;20225;-83
2023/08/28 02:01:25;;;;;;;2.00;1.50;;;16.80;64.60;18.60;100956.00;;;;5050477;28;20211;-83
2023/08/28 02:03:53;;;;;;;2.00;1.45;;;16.80;64.70;18.60;100961.00;;;;5051415;28;20196;-83
2023/08/28 02:06:20;;;;;;;2.30;1.65;;;16.80;64.70;18.60;100954.00;;;;5049734;28;20199;-82
2023/08/28 02:08:47;;;;;;;1.80;1.48;;;16.80;64.80;18.60;100958.00;;;;5050767;28;20180;-82
2023/08/28 02:11:14;;;;;;;1.42;1.33;;;16.80;64.80;18.60;100953.00;;;;5049166;28;20219;-82
2023/08/28 02:13:41;;;;;;;1.98;1.67;;;16.80;64.80;18.60;100965.00;;;;5045570;28;20910;-81
2023/08/28 02:16:10;;;;;;;2.42;1.75;;;16.80;64.90;18.60;100962.00;;;;5049740;28;21033;-82
2023/08/28 02:18:37;;;;;;;2.83;1.60;;;16.80;64.90;18.60;100957.00;;;;5050404;28;20192;-82
2023/08/28 02:21:04;;;;;;;1.80;1.33;;;16.70;64.80;18.60;100953.00;;;;5050402;28;20212;-82
2023/08/28 02:23:31;;;;;;;2.67;1.48;;;16.70;65.50;18.50;100954.00;;;;5050345;28;20188;-82
2023/08/28 02:25:58;;;;;;;2.15;1.70;;;16.70;65.00;18.50;100942.00;;;;5050521;28;20283;-82
2023/08/28 02:28:25;;;;;;;2.72;1.60;;;16.70;65.00;18.50;100934.00;;;;5049822;28;20578;-82
2023/08/28 02:30:52;;;;;;;2.10;1.85;;;16.80;65.10;18.50;100928.00;;;;5050910;28;20204;-82
2023/08/28 02:33:21;;;;;;;1.75;1.65;;;16.70;65.00;18.50;100928.00;;;;5049382;28;20200;-82
2023/08/28 02:35:48;;;;;;;1.30;1.20;;;16.70;65.00;18.50;100917.00;;;;5049419;28;20204;-82
2023/08/28 02:38:15;;;;;;;1.70;1.60;;;16.70;64.90;18.50;100917.00;;;;5049434;28;20582;-82
2023/08/28 02:40:42;;;;;;;1.75;1.35;;;16.70;65.00;18.50;100916.00;;;;5050555;28;20283;-82
2023/08/28 02:43:09;;;;;;;2.35;1.30;;;16.70;65.00;18.50;100916.00;;;;5047634;28;20562;-82
2023/08/28 02:45:40;;;;;;;2.15;1.60;;;16.70;65.00;18.40;100929.00;;;;5050507;28;20191;-82
2023/08/28 02:48:08;;;;;;;2.00;1.52;;;16.70;65.10;18.50;100926.00;;;;5049099;28;20218;-83
2023/08/28 02:50:37;;;;;;;2.90;1.42;;;16.70;65.10;18.40;100934.00;;;;5050235;28;20199;-82
2023/08/28 02:53:05;;;;;;;1.98;1.63;;;16.60;65.00;18.40;100928.00;;;;5049053;28;20695;-82
2023/08/28 02:55:39;;;;;;;2.13;1.30;;;16.70;65.00;18.40;100928.00;;;;5049381;28;20207;-82
2023/08/28 02:58:06;;;;;;;4.90;1.70;;;16.70;65.10;18.40;100927.00;;;;5049288;28;20216;-82
2023/08/28 03:00:35;;;;;;;2.00;1.60;;;16.60;65.10;18.40;100923.00;;;;5049234;28;20960;-82
2023/08/28 03:03:02;;;;;;;4.50;1.45;;;16.60;65.00;18.40;100929.00;;;;5036324;28;20200;-82
2023/08/28 03:05:29;;;;;;;1.58;1.48;;;16.60;65.00;18.40;100931.00;;;;5050339;28;20546;-82
2023/08/28 03:07:57;;;;;;;3.88;1.80;;;16.60;65.70;18.40;100935.00;;;;5048435;28;20202;-82
2023/08/28 03:10:24;;;;;;;3.38;1.55;;;16.60;65.00;18.40;100928.00;;;;5048476;28;20207;-82
2023/08/28 03:12:51;;;;;;;1.88;1.42;;;16.60;65.00;18.40;100932.00;;;;5048485;28;20219;-82
2023/08/28 03:15:18;;;;;;;1.92;1.65;;;16.60;65.10;18.40;100930.00;;;;5048891;28;20668;-82
2023/08/28 03:17:45;;;;;;;3.53;1.50;;;16.60;65.00;18.30;100937.00;;;;5050128;28;20231;-82
2023/08/28 03:20:12;;;;;;;2.63;1.83;;;16.50;65.00;18.30;100938.00;;;;5047073;28;20196;-82
2023/08/28 03:22:40;;;;;;;1.65;1.35;;;16.50;65.10;18.30;100944.00;;;;5049606;28;20192;-82
2023/08/28 03:25:09;;;;;;;2.55;1.80;;;16.50;65.00;18.30;100944.00;;;;5047036;28;20666;-82
2023/08/28 03:27:36;;;;;;;3.50;1.90;;;16.50;65.00;18.30;100962.00;;;;5049236;28;20686;-82
2023/08/28 03:30:04;;;;;;;2.65;1.70;;;16.50;65.00;18.30;100963.00;;;;5048904;28;20679;-82
2023/08/28 03:32:31;;;;;;;2.10;1.90;;;16.50;65.00;18.30;100968.00;;;;5048365;28;20646;-82
2023/08/28 03:34:57;;;;;;;3.35;2.20;;;16.50;65.10;18.30;100971.00;;;;5048710;28;20302;-82
2023/08/28 03:37:24;;;;;;;4.88;1.70;;;16.50;65.20;18.30;100971.00;;;;5047681;28;20361;-83
2023/08/28 03:39:51;;;;;;;2.42;2.22;;;16.50;65.30;18.30;100985.00;;;;5049148;28;20202;-82
2023/08/28 03:42:19;;;;;;;4.55;1.80;;;16.50;65.30;18.30;100989.00;;;;5044079;28;20203;-82
2023/08/28 03:44:46;;;;;;;3.28;2.22;;;16.50;65.30;18.30;100989.00;;;;5048750;28;20195;-82
2023/08/28 03:47:13;;;;;;;2.58;2.20;;;16.50;65.50;18.30;100982.00;;;;5048894;28;20200;-82
2023/08/28 03:49:40;;;;;;;3.63;2.70;;;16.50;65.50;18.30;100991.00;;;;5048888;28;20200;-82
2023/08/28 03:52:07;;;;;;;3.25;2.67;;;16.50;65.50;18.30;100991.00;;;;5048725;28;20215;-82
2023/08/28 03:54:34;;;;;;;4.95;2.30;;;16.50;65.60;18.30;100988.00;;;;5048828;28;20203;-82
2023/08/28 03:57:00;;;;;;;4.13;2.92;;;16.50;65.70;18.30;100986.00;;;;5048096;28;20199;-81
2023/08/28 03:59:29;;;;;;;5.30;2.83;;;16.50;65.80;18.30;100989.00;;;;5047837;28;20192;-82
2023/08/28 04:01:56;;;;;;;3.95;3.20;;;16.50;65.80;18.40;100992.00;;;;5048656;28;20770;-82
2023/08/28 04:04:23;;;;;;;5.38;2.80;;;16.50;65.80;18.40;100994.00;;;;5048652;28;20586;-82
2023/08/28 04:06:49;;;;;;;4.57;2.90;;;16.60;66.00;18.40;100992.00;;;;5049058;28;20195;-82
2023/08/28 04:09:16;;;;;;;3.95;2.83;;;16.60;66.10;18.40;100987.00;;;;5047563;28;20200;-82
2023/08/28 04:11:44;;;;;;;2.70;2.50;;;16.60;66.10;18.40;100990.00;;;;5037917;28;20314;-82
2023/08/28 04:14:11;;;;;;;6.18;2.88;;;16.60;66.10;18.40;100988.00;;;;5039006;28;20196;-82
2023/08/28 04:16:39;;;;;;;3.67;3.00;;;16.60;66.10;18.40;101001.00;;;;5045126;28;20602;-82
2023/08/28 04:19:06;;;;;;;4.85;2.80;;;16.60;66.10;18.40;100997.00;;;;5047021;28;20188;-82
2023/08/28 04:21:33;;;;;;;2.72;2.53;;;16.70;66.20;18.40;101002.00;;;;5047886;28;20204;-82
2023/08/28 04:24:00;;;;;;;3.10;2.80;;;16.70;66.10;18.40;101004.00;;;;5048867;28;20196;-81
2023/08/28 04:26:27;;;;;;;3.30;2.90;;;16.70;66.10;18.50;101008.00;;;;5047055;28;20667;-82
2023/08/28 04:28:54;;;;;;;3.22;2.72;;;16.60;66.00;18.50;101011.00;;;;5048938;28;20203;-79
2023/08/28 04:31:21;;;;;;;3.30;2.65;;;16.70;66.10;18.50;101010.00;;;;5047128;28;20208;-80
2023/08/28 04:33:50;;;;;;;3.67;3.22;;;16.70;66.20;18.50;101013.00;;;;5046813;28;20605;-82
2023/08/28 04:36:17;;;;;;;4.10;2.67;;;16.70;66.30;18.50;101020.00;;;;5045940;28;20838;-82
2023/08/28 04:38:43;;;;;;;4.75;3.30;;;16.70;66.20;18.50;101026.00;;;;5047930;28;20204;-82
2023/08/28 04:41:10;;;;;;;3.47;3.13;;;16.70;66.30;18.50;101031.00;;;;5047132;28;20195;-82
2023/08/28 04:43:37;;;;;;;3.42;2.75;;;16.70;66.30;18.50;101034.00;;;;5047686;28;20199;-82
2023/08/28 04:46:06;;;;;;;3.40;2.72;;;16.70;66.60;18.50;101031.00;;;;5047941;28;20207;-82
2023/08/28 04:48:33;;;;;;;4.40;3.10;;;16.70;66.40;18.60;101037.00;;;;5047164;28;20207;-82
2023/08/28 04:51:01;;;;;;;4.15;3.35;;;16.70;66.50;18.60;101044.00;;;;5039786;28;20191;-81
2023/08/28 04:53:28;;;;;;;3.08;2.78;;;16.80;66.60;18.60;101037.00;;;;5048184;28;20219;-82
2023/08/28 04:55:55;;;;;;;3.63;3.25;;;16.80;66.60;18.60;101039.00;;;;5048614;28;20682;-82
2023/08/28 04:58:22;;;;;;;3.53;2.90;;;16.80;66.60;18.70;101042.00;;;;5048037;28;20227;-82
2023/08/28 05:00:49;;;;;;;3.50;3.15;;;16.80;67.40;18.70;101041.00;;;;5048244;28;20194;-82
2023/08/28 05:03:16;;;;;;;3.47;3.15;;;16.90;66.70;18.70;101038.00;;;;5046980;28;20206;-82
2023/08/28 05:05:43;;;;;;;3.25;2.80;;;16.90;66.70;18.70;101033.00;;;;5031912;28;20602;-82
2023/08/28 05:08:11;;;;;;;6.50;3.17;;;16.90;66.80;18.70;101029.00;;;;5046238;28;20198;-82
2023/08/28 05:10:38;;;;;;;3.53;3.20;;;16.90;66.90;18.80;101036.00;;;;5047469;28;20194;-80
2023/08/28 05:13:05;;;;;;;3.53;3.22;;;17.00;66.90;18.80;101025.00;;;;5047106;28;20264;-80
2023/08/28 05:15:32;;;;;;;5.05;3.30;;;17.00;66.90;18.80;101027.00;;;;5046825;28;20222;-80
2023/08/28 05:17:59;;;;;;;3.60;3.10;;;17.10;67.00;18.90;101028.00;;;;5047110;28;20200;-81
2023/08/28 05:20:28;;;;;;;3.00;2.55;;;17.10;67.00;18.90;101028.00;;;;5047758;28;20204;-80
2023/08/28 05:22:55;;;;;;;3.25;2.70;;;17.10;67.00;18.90;101037.00;;;;5047271;28;20203;-81
2023/08/28 05:25:23;;;;;;;3.33;3.03;;;17.10;67.00;18.90;101025.00;;;;5046497;28;20210;-81
2023/08/28 05:27:50;;;;;;;3.22;2.92;;;17.20;67.10;19.00;101025.00;;;;5046673;28;20249;-79
2023/08/28 05:30:17;;;;;;;3.70;3.40;;;17.20;67.10;19.00;101026.00;;;;5046724;28;20192;-78
2023/08/28 05:32:44;;;;;;;2.85;2.55;;;17.20;67.10;19.10;101023.00;;;;5046844;28;20207;-79
2023/08/28 05:35:11;;;;;;;3.53;3.22;;;17.30;67.20;19.10;101025.00;;;;5045738;28;20230;-78
2023/08/28 05:37:38;;;;;;;3.97;3.42;;;17.30;67.30;19.10;101020.00;;;;5046215;28;20203;-78
2023/08/28 05:40:08;;;;;;;3.38;3.08;;;17.40;67.30;19.20;101024.00;;;;5040470;28;20686;-79
2023/08/28 05:42:36;;;;;;;3.83;3.42;;;17.40;67.30;19.20;101022.00;;;;5045634;28;20195;-79
2023/08/28 05:45:05;;;;;;;3.35;3.05;;;17.40;67.40;19.20;101023.00;;;;5047090;28;20199;-79
2023/08/28 05:47:32;;;;;;;3.40;2.90;;;17.40;67.30;19.30;101015.00;;;;5046830;28;20208;-78
2023/08/28 05:49:59;;;;;;;3.10;2.80;;;17.50;67.40;19.30;101017.00;;;;5038096;28;20204;-78
2023/08/28 05:52:26;;;;;;;3.33;3.03;;;17.50;67.40;19.30;101010.00;;;;5046296;28;20227;-78
2023/08/28 05:54:53;;;;;;;4.28;3.40;;;17.50;67.40;19.40;101018.00;;;;5041441;28;20200;-79
2023/08/28 05:57:20;;;;;;;5.30;3.40;;;17.60;67.50;19.40;101027.00;;;;5032623;28;21061;-80
2023/08/28 05:59:49;;;;;;;4.45;3.45;;;17.60;67.50;19.40;101022.00;;;;5034708;28;20191;-81
2023/08/28 06:02:16;;;;;;;3.97;3.35;;;17.70;67.60;19.50;101031.00;;;;5040437;28;20192;-82
2023/08/28 06:04:47;;;;;;;4.32;3.53;;;17.70;67.60;19.50;101024.00;;;;5032251;28;20203;-82
2023/08/28 06:07:14;;;;;;;4.60;4.20;;;17.70;67.70;19.60;101021.00;;;;5045293;28;20624;-83
2023/08/28 06:09:43;;;;;;;4.03;3.63;;;17.80;67.70;19.60;101013.00;;;;5043106;28;20617;-82
2023/08/28 06:12:10;;;;;;;4.18;3.78;;;17.90;67.80;19.70;101013.00;;;;5029950;28;20200;-82
2023/08/28 06:14:37;;;;;;;3.92;3.15;;;17.90;67.90;19.80;101018.00;;;;5028300;28;20204;-82
2023/08/28 06:17:07;;;;;;;4.65;4.15;;;18.00;68.00;19.80;101016.00;;;;5027135;28;20243;-82
2023/08/28 06:19:34;;;;;;;4.15;3.75;;;18.00;68.10;19.90;101020.00;;;;5034518;28;20211;-83
2023/08/28 06:22:04;;;;;;;3.50;3.20;;;18.10;68.20;19.90;101019.00;;;;5045832;28;20200;-83
2023/08/28 06:24:31;;;;;;;3.47;3.17;;;18.10;68.10;20.00;101030.00;;;;5042956;28;20207;-82
2023/08/28 06:26:58;;;;;;;4.78;3.15;;;18.20;68.10;20.10;101030.00;;;;5050315;28;20210;-82
2023/08/28 06:29:26;;;;;;;3.70;3.20;;;18.30;68.10;20.10;101034.00;;;;5051056;28;20311;-82
2023/08/28 06:31:53;;;;;;;6.40;3.22;;;18.30;68.10;20.20;101028.00;;;;5042856;28;20223;-82
2023/08/28 06:34:21;;;;;;;4.00;3.10;;;18.40;68.10;20.20;101029.00;;;;5046355;28;20228;-83
2023/08/28 06:36:49;;;;;;;4.47;3.22;;;18.50;68.20;20.20;101031.00;;;;5050341;28;20727;-82
2023/08/28 06:39:16;;;;;;;5.05;3.60;;;18.50;68.00;20.30;101038.00;;;;5049806;28;20196;-83
2023/08/28 06:41:45;;;;;;;3.15;2.85;;;18.60;68.10;20.30;101032.00;;;;5050729;28;20187;-83
2023/08/28 06:44:12;;;;;;;3.53;3.22;;;18.60;68.00;20.40;101033.00;;;;5048119;28;20311;-83
2023/08/28 06:46:39;;;;;;;4.40;3.40;;;18.60;68.00;20.40;101041.00;;;;5041082;28;20260;-82
2023/08/28 06:49:08;;;;;;;3.53;3.00;;;18.70;68.10;20.40;101052.00;;;;5046789;28;20195;-82
2023/08/28 06:51:37;;;;;;;3.72;3.40;;;18.70;68.00;20.50;101048.00;;;;5045726;28;20291;-83
2023/08/28 06:54:04;;;;;;;4.22;3.28;;;18.80;68.10;20.60;101037.00;;;;5044772;28;20235;-83
2023/08/28 06:56:31;;;;;;;3.70;3.38;;;18.80;68.10;20.60;101049.00;;;;5048770;28;20597;-82
2023/08/28 06:58:58;;;;;;;3.83;3.30;;;18.90;68.10;20.60;101047.00;;;;5048703;28;20222;-84
2023/08/28 07:01:25;;;;;;;3.30;3.00;;;18.90;68.10;20.70;101043.00;;;;5046067;28;20214;-82
2023/08/28 07:03:52;;;;;;;4.18;3.15;;;19.00;68.20;20.80;101053.00;;;;5046952;28;20196;-82
2023/08/28 07:06:19;;;;;;;4.93;3.47;;;19.00;68.10;20.80;101050.00;;;;5031459;28;20287;-82
2023/08/28 07:08:47;;;;;;;4.50;3.08;;;19.00;68.10;20.80;101045.00;;;;5032701;28;20201;-82
2023/08/28 07:11:14;;;;;;;2.83;2.28;;;19.10;68.10;20.90;101048.00;;;;5047339;28;20207;-82
2023/08/28 07:13:41;;;;;;;2.90;2.60;;;19.10;68.10;20.90;101053.00;;;;5046529;28;20223;-83
2023/08/28 07:16:08;;;;;;;3.30;2.67;;;19.20;68.20;21.00;101043.00;;;;5048806;28;20238;-82
2023/08/28 07:18:35;;;;;;;3.05;2.70;;;19.20;68.50;21.00;101058.00;;;;5047965;28;20196;-83
2023/08/28 07:21:02;;;;;;;4.80;3.17;;;19.30;68.10;21.10;101054.00;;;;5048140;28;20203;-82
2023/08/28 07:23:29;;;;;;;3.88;2.72;;;19.30;68.10;21.10;101047.00;;;;5047707;28;20204;-82
2023/08/28 07:25:59;;;;;;;3.22;2.88;;;19.40;68.10;21.20;101057.00;;;;5042782;28;20204;-82
2023/08/28 07:28:27;;;;;;;5.18;3.00;;;19.50;68.10;21.20;101057.00;;;;5049721;28;20203;-81
2023/08/28 07:30:57;;;;;;;5.30;2.85;;;19.50;68.00;21.20;101061.00;;;;5035303;28;20287;-82
2023/08/28 07:33:25;;;;;;;4.03;3.08;;;19.50;68.00;21.30;101059.00;;;;5046571;28;20255;-82
2023/08/28 07:35:52;;;;;;;3.30;2.92;;;19.60;68.00;21.40;101062.00;;;;5047875;28;20192;-83
2023/08/28 07:38:19;;;;;;;3.17;2.80;;;19.60;67.90;21.40;101052.00;;;;5045225;28;20196;-82
2023/08/28 07:40:48;;;;;;;3.90;2.85;;;19.70;67.90;21.40;101062.00;;;;5045435;28;20210;-81
2023/08/28 07:43:16;;;;;;;2.78;2.58;;;19.70;67.90;21.40;101058.00;;;;5036181;28;20203;-82
2023/08/28 07:45:43;;;;;;;4.00;2.40;;;19.80;67.80;21.50;101056.00;;;;5043377;28;20672;-82
2023/08/28 07:48:10;;;;;;;3.90;2.42;;;19.80;67.80;21.50;101064.00;;;;5039449;28;20191;-82
2023/08/28 07:50:39;;;;;;;3.00;2.45;;;19.80;67.70;21.60;101061.00;;;;5048469;28;20196;-83
2023/08/28 07:53:06;;;;;;;3.72;2.47;;;19.80;67.80;21.70;101066.00;;;;5046418;28;20257;-83
2023/08/28 07:55:34;;;;;;;3.63;2.65;;;19.90;67.90;21.80;101064.00;;;;5043213;28;20208;-83
2023/08/28 07:58:01;;;;;;;3.65;2.30;;;20.00;68.10;21.80;101069.00;;;;5043127;28;20226;-83
2023/08/28 08:00:34;;;;;;;1.83;1.73;;;20.00;68.20;21.90;101071.00;;;;5043973;28;20195;-82
2023/08/28 08:03:03;;;;;;;2.38;2.17;;;20.10;68.40;22.00;101075.00;;;;5040095;28;20544;-81
2023/08/28 08:05:31;;;;;;;2.53;2.33;;;20.20;68.40;22.10;101069.00;;;;5047177;28;20199;-82
2023/08/28 08:07:58;;;;;;;2.35;2.13;;;20.30;68.50;22.20;101069.00;;;;5036956;28;20200;-82
2023/08/28 08:10:25;;;;;;;2.72;2.25;;;20.40;68.40;22.30;101069.00;;;;5030827;28;20214;-82
2023/08/28 08:12:53;;;;;;;4.78;2.10;;;20.50;68.40;22.30;101073.00;;;;5040515;28;20200;-84
2023/08/28 08:15:20;;;;;;;2.13;1.70;;;20.60;68.30;22.40;101067.00;;;;5034735;28;20195;-83
2023/08/28 08:17:49;;;;;;;2.15;1.77;;;20.60;68.20;22.50;101076.00;;;;5044498;28;20310;-82
2023/08/28 08:20:24;;;;;;;1.90;1.80;;;20.70;68.10;22.50;101076.00;;;;5045569;28;20206;-82
2023/08/28 08:22:52;;;;;;;1.80;1.63;;;20.80;68.10;22.70;101074.00;;;;5039587;28;20258;-83
2023/08/28 08:25:19;;;;;;;2.63;1.95;;;20.90;68.10;22.80;101076.00;;;;5030382;28;20229;-83
2023/08/28 08:27:47;;;;;;;2.33;1.58;;;21.00;68.20;22.90;101081.00;;;;5043405;28;20305;-82
2023/08/28 08:30:14;;;;;;;1.95;1.30;;;21.10;68.10;23.00;101084.00;;;;5047206;28;20196;-83
2023/08/28 08:32:43;;;;;;;1.48;1.10;;;21.20;67.90;23.20;101080.00;;;;5046587;28;20580;-82
2023/08/28 08:35:12;;;;;;;1.00;0.80;;;21.30;67.50;23.30;101055.00;;;;5035720;28;20250;-83
2023/08/28 08:37:39;;;;;;;1.48;0.95;;;21.50;67.20;23.40;101071.00;;;;5046617;28;20223;-83
2023/08/28 08:40:14;;;;;;;1.67;1.00;;;21.50;66.90;23.40;101070.00;;;;5044825;28;20655;-82
2023/08/28 08:42:41;;;;;;;1.45;1.10;;;21.70;66.70;23.60;101071.00;;;;5039852;28;21960;-82
2023/08/28 08:45:10;;;;;;;6.60;1.27;;;21.80;66.70;23.70;101075.00;;;;5046719;28;20203;-82
2023/08/28 08:47:40;;;;;;;1.83;1.10;;;21.90;66.70;23.80;101072.00;;;;5041363;28;20199;-82
2023/08/28 08:50:13;;;;;;;1.27;1.13;;;22.10;66.50;24.00;101067.00;;;;5044965;28;20191;-83
2023/08/28 08:52:43;;;;;;;2.05;1.13;;;22.20;66.40;24.10;101075.00;;;;5039227;28;20200;-83
2023/08/28 08:55:21;;;;;;;3.45;1.08;;;22.30;66.40;24.20;101073.00;;;;5034889;28;20600;-83
2023/08/28 08:57:55;;;;;;;1.08;0.85;;;22.40;66.20;24.40;101078.00;;;;5038611;28;20219;-83
2023/08/28 09:00:22;;;;;;;1.55;1.20;;;22.50;66.20;24.60;101065.00;;;;5040233;28;20204;-82
2023/08/28 09:02:53;;;;;;;1.25;1.00;;;22.70;66.30;24.70;101077.00;;;;5033526;28;20215;-84
2023/08/28 09:05:21;;;;;;;1.60;0.70;;;22.90;66.00;24.80;101075.00;;;;5034934;28;20257;-84
2023/08/28 09:07:51;;;;;;;0.85;0.70;;;23.00;65.50;24.90;101071.00;;;;5047233;28;20199;-83
2023/08/28 09:10:18;;;;;;;1.05;0.73;;;23.10;65.00;24.90;101071.00;;;;5046556;28;20195;-83
2023/08/28 09:12:46;;;;;;;1.92;0.88;;;23.20;64.40;24.90;101074.00;;;;5042281;28;20205;-83
2023/08/28 09:15:14;;;;;;;1.98;0.70;;;23.20;63.80;24.90;101072.00;;;;5044862;28;20621;-83
2023/08/28 09:17:42;;;;;;;3.53;0.60;;;23.30;63.40;24.90;101070.00;;;;5042769;28;20233;-83
2023/08/28 09:20:16;;;;;;;1.15;0.77;;;23.30;63.10;24.90;101071.00;;;;5036606;28;20318;-83
2023/08/28 09:22:49;;;;;;;1.27;0.75;;;23.30;62.90;24.90;101075.00;;;;5042426;28;20740;-83
2023/08/28 09:25:17;;;;;;;1.90;0.80;;;23.30;62.90;25.00;101080.00;;;;5036557;28;20207;-82
2023/08/28 09:27:46;;;;;;;0.68;0.57;;;23.30;63.10;25.10;101080.00;;;;5031518;28;20203;-84
2023/08/28 09:30:29;;;;;;;0.90;0.60;;;23.40;63.20;25.10;101074.00;;;;5039311;28;20703;-84
2023/08/28 09:33:00;;;;;;;0.40;0.30;;;23.40;62.10;25.20;101064.00;;;;5041374;28;20192;-84
2023/08/28 09:35:29;;;;;;;0.50;0.32;;;23.50;62.50;25.20;101067.00;;;;5045374;28;21162;-83
2023/08/28 09:38:02;;;;;;;0.77;0.40;;;23.60;62.30;25.30;101071.00;;;;5045285;28;20192;-83
2023/08/28 09:40:32;;;;;;;0.85;0.52;;;23.60;61.60;25.40;101073.00;;;;5044606;28;20203;-83
2023/08/28 09:42:59;;;;;;;0.40;0.30;;;23.70;61.70;25.40;101066.00;;;;5040943;28;20608;-84
2023/08/28 09:45:32;;;;;;;0.38;0.30;;;23.70;61.40;25.40;101068.00;;;;5030928;28;20192;-84
2023/08/28 09:47:59;;;;;;;1.48;0.43;;;23.80;60.90;25.50;101073.00;;;;5041854;28;20671;-83
2023/08/28 09:50:31;;;;;;;0.75;0.50;;;23.80;61.30;25.60;101065.00;;;;5046982;28;20204;-83
2023/08/28 09:53:08;;;;;;;1.25;0.68;;;23.90;60.90;25.70;101068.00;;;;5045906;28;20194;-83
2023/08/28 09:55:39;;;;;;;0.73;0.55;;;24.10;60.50;25.80;101074.00;;;;5044971;28;20234;-84
2023/08/28 09:58:10;;;;;;;0.90;0.40;;;24.10;60.90;25.80;101072.00;;;;5047286;28;20227;-84
2023/08/28 10:00:40;;;;;;;0.68;0.50;;;24.20;60.10;25.90;101076.00;;;;5042419;28;20203;-84
2023/08/28 10:03:09;;;;;;;1.48;0.40;;;24.30;59.70;25.90;101080.00;;;;5039559;28;20646;-83
2023/08/28 10:05:38;;;;;;;1.75;0.50;;;24.40;59.40;25.90;101079.00;;;;5049344;28;20195;-82
2023/08/28 10:08:09;;;;;;;0.95;0.30;;;24.30;59.10;25.80;101082.00;;;;5049373;28;20199;-83
2023/08/28 10:10:41;;;;;;;0.50;0.30;;;24.30;58.80;25.80;101085.00;;;;5045076;28;20573;-82
2023/08/28 10:13:13;;;;;;;0.40;0.30;;;24.30;58.70;25.80;101086.00;;;;5036378;28;20207;-83
2023/08/28 10:15:50;;;;;;;2.58;0.50;;;24.30;58.60;25.70;101086.00;;;;5031284;28;20225;-83
2023/08/28 10:18:26;;;;;;;0.73;0.32;;;24.20;58.50;25.70;101085.00;;;;5048266;28;20191;-84
2023/08/28 10:20:54;;;;;;;2.05;0.30;;;24.20;58.50;25.80;101074.00;;;;5046202;28;20191;-82
2023/08/28 10:23:25;;;;;;;0.40;0.38;;;24.30;59.00;25.90;101079.00;;;;5031245;28;20211;-83
2023/08/28 10:25:54;;;;;;;0.40;0.30;;;24.30;58.70;26.00;101080.00;;;;5044818;28;20199;-82
2023/08/28 10:28:23;;;;;;;0.60;0.50;;;24.30;58.60;26.10;101080.00;;;;5043984;28;20592;-83
2023/08/28 10:30:52;;;;;;;0.95;0.50;;;24.40;58.60;26.20;101081.00;;;;5045336;28;20203;-84
2023/08/28 10:33:20;;;;;;;1.38;0.40;;;24.60;58.70;26.30;101071.00;;;;5034762;28;20203;-82
2023/08/28 10:35:53;;;;;;;1.17;0.40;;;24.70;58.90;26.40;101086.00;;;;5049079;28;20638;-82
2023/08/28 10:38:23;;;;;;;0.30;0.20;;;24.80;58.40;26.50;101085.00;;;;5044062;28;20208;-81
2023/08/28 10:40:53;;;;;;;0.70;0.60;;;24.90;58.50;26.70;101082.00;;;;5038574;28;20249;-82
2023/08/28 10:43:23;;;;;;;1.33;0.40;;;25.10;58.30;26.80;101075.00;;;;5042847;28;20245;-82
2023/08/28 10:45:54;;;;;;;0.95;0.43;;;25.20;58.00;26.90;101080.00;;;;5045212;28;20686;-81
2023/08/28 10:48:22;;;;;;;0.10;0.10;;;25.30;57.80;26.90;101085.00;;;;5044183;28;20203;-82
2023/08/28 10:50:49;;;;;;;0.52;0.40;;;25.40;57.50;26.90;101090.00;;;;5049340;28;20200;-81
2023/08/28 10:53:18;;;;;;;0.45;0.30;;;25.50;57.20;26.90;101087.00;;;;5044558;28;20196;-83